sensor_id;sensor_type;location;lat;lon;timestamp;temperature;humidity
20744;DHT22;56303;52.160;-0.428;2023-03-14T00:01:28;9.30;99.90
20744;DHT22;56303;52.160;-0.428;2023-03-14T00:03:55;9.40;99.90
20744;DHT22;56303;52.160;-0.428;2023-03-14T00:06:22;9.00;99.90
20744;DHT22;56303;52.160;-0.428;2023-03-14T00:08:49;8.50;99.90
20744;DHT22;56303;52.160;-0.428;2023-03-14T00:11:19;8.30;99.90
20744;DHT22;56303;52.160;-0.428;2023-03-14T00:13:50;8.40;99.90
20744;DHT22;56303;52.160;-0.428;2023-03-14T00:16:17;8.10;99.90
20744;DHT22;56303;52.160;-0.428;2023-03-14T00:18:45;8.00;99.90
20744;DHT22;56303;52.160;-0.428;2023-03-14T00:21:12;8.20;99.90
20744;DHT22;56303;52.160;-0.428;2023-03-14T00:23:40;7.90;99.90
20744;DHT22;56303;52.160;-0.428;2023-03-14T00:26:10;8.00;99.90
20744;DHT22;56303;52.160;-0.428;2023-03-14T00:28:37;8.10;99.90
20744;DHT22;56303;52.160;-0.428;2023-03-14T00:31:06;8.00;99.90
20744;DHT22;56303;52.160;-0.428;2023-03-14T00:33:34;8.00;99.90
20744;DHT22;56303;52.160;-0.428;2023-03-14T00:36:03;7.90;99.90
20744;DHT22;56303;52.160;-0.428;2023-03-14T00:38:31;7.50;99.90
20744;DHT22;56303;52.160;-0.428;2023-03-14T00:40:58;8.00;99.90
20744;DHT22;56303;52.160;-0.428;2023-03-14T00:43:25;8.00;99.90
20744;DHT22;56303;52.160;-0.428;2023-03-14T00:45:52;8.10;99.90
20744;DHT22;56303;52.160;-0.428;2023-03-14T00:48:20;8.00;99.90
20744;DHT22;56303;52.160;-0.428;2023-03-14T00:50:47;7.90;99.90
20744;DHT22;56303;52.160;-0.428;2023-03-14T00:53:14;7.80;99.90
20744;DHT22;56303;52.160;-0.428;2023-03-14T00:55:43;8.00;99.90
20744;DHT22;56303;52.160;-0.428;2023-03-14T00:58:12;7.70;99.90
20744;DHT22;56303;52.160;-0.428;2023-03-14T01:00:40;7.60;99.90
20744;DHT22;56303;52.160;-0.428;2023-03-14T01:03:07;7.60;99.90
20744;DHT22;56303;52.160;-0.428;2023-03-14T01:05:35;7.80;99.90
20744;DHT22;56303;52.160;-0.428;2023-03-14T01:08:02;7.50;99.90
20744;DHT22;56303;52.160;-0.428;2023-03-14T01:10:30;7.70;99.90
20744;DHT22;56303;52.160;-0.428;2023-03-14T01:12:57;7.80;99.90
20744;DHT22;56303;52.160;-0.428;2023-03-14T01:15:23;7.80;99.90
20744;DHT22;56303;52.160;-0.428;2023-03-14T01:17:50;7.80;99.90
20744;DHT22;56303;52.160;-0.428;2023-03-14T01:20:18;7.70;99.90
20744;DHT22;56303;52.160;-0.428;2023-03-14T01:22:45;7.60;99.90
20744;DHT22;56303;52.160;-0.428;2023-03-14T01:25:14;7.60;99.90
20744;DHT22;56303;52.160;-0.428;2023-03-14T01:27:42;7.60;99.90
20744;DHT22;56303;52.160;-0.428;2023-03-14T01:30:10;7.70;99.90
20744;DHT22;56303;52.160;-0.428;2023-03-14T01:32:37;7.70;99.90
20744;DHT22;56303;52.160;-0.428;2023-03-14T01:35:04;7.60;99.90
20744;DHT22;56303;52.160;-0.428;2023-03-14T01:37:31;7.60;99.90
20744;DHT22;56303;52.160;-0.428;2023-03-14T01:39:58;7.60;99.90
20744;DHT22;56303;52.160;-0.428;2023-03-14T01:42:25;7.50;99.90
20744;DHT22;56303;52.160;-0.428;2023-03-14T01:44:57;7.60;99.90
20744;DHT22;56303;52.160;-0.428;2023-03-14T01:47:24;7.50;99.90
20744;DHT22;56303;52.160;-0.428;2023-03-14T01:50:04;7.50;99.90
20744;DHT22;56303;52.160;-0.428;2023-03-14T01:52:36;7.50;99.90
20744;DHT22;56303;52.160;-0.428;2023-03-14T01:55:09;7.40;99.90
20744;DHT22;56303;52.160;-0.428;2023-03-14T01:57:45;7.30;99.90
20744;DHT22;56303;52.160;-0.428;2023-03-14T02:00:17;7.00;99.90
20744;DHT22;56303;52.160;-0.428;2023-03-14T02:02:47;7.10;99.90
20744;DHT22;56303;52.160;-0.428;2023-03-14T02:05:25;7.00;99.90
20744;DHT22;56303;52.160;-0.428;2023-03-14T02:07:55;6.90;99.90
20744;DHT22;56303;52.160;-0.428;2023-03-14T02:10:26;7.00;99.90
20744;DHT22;56303;52.160;-0.428;2023-03-14T02:12:55;6.90;99.90
20744;DHT22;56303;52.160;-0.428;2023-03-14T02:15:23;6.90;99.90
20744;DHT22;56303;52.160;-0.428;2023-03-14T02:17:51;6.80;99.90
20744;DHT22;56303;52.160;-0.428;2023-03-14T02:23:09;6.70;99.90
20744;DHT22;56303;52.160;-0.428;2023-03-14T02:25:51;6.60;99.90
20744;DHT22;56303;52.160;-0.428;2023-03-14T02:28:21;6.60;99.90
20744;DHT22;56303;52.160;-0.428;2023-03-14T02:30:48;6.70;99.90
20744;DHT22;56303;52.160;-0.428;2023-03-14T02:33:17;6.60;99.90
20744;DHT22;56303;52.160;-0.428;2023-03-14T02:36:02;6.50;99.90
20744;DHT22;56303;52.160;-0.428;2023-03-14T02:41:21;6.50;99.90
20744;DHT22;56303;52.160;-0.428;2023-03-14T02:43:48;6.40;99.90
20744;DHT22;56303;52.160;-0.428;2023-03-14T02:46:21;6.60;99.90
20744;DHT22;56303;52.160;-0.428;2023-03-14T02:49:04;6.60;99.90
20744;DHT22;56303;52.160;-0.428;2023-03-14T02:51:34;6.60;99.90
20744;DHT22;56303;52.160;-0.428;2023-03-14T02:54:01;6.50;99.90
20744;DHT22;56303;52.160;-0.428;2023-03-14T02:56:28;6.60;99.90
20744;DHT22;56303;52.160;-0.428;2023-03-14T02:58:55;6.50;99.90
20744;DHT22;56303;52.160;-0.428;2023-03-14T03:01:24;6.40;99.90
20744;DHT22;56303;52.160;-0.428;2023-03-14T03:03:51;6.40;99.90
20744;DHT22;56303;52.160;-0.428;2023-03-14T03:06:18;6.40;99.90
20744;DHT22;56303;52.160;-0.428;2023-03-14T03:08:45;6.30;99.90
20744;DHT22;56303;52.160;-0.428;2023-03-14T03:11:12;6.40;99.90
20744;DHT22;56303;52.160;-0.428;2023-03-14T03:13:38;6.40;99.90
20744;DHT22;56303;52.160;-0.428;2023-03-14T03:16:05;6.30;99.90
20744;DHT22;56303;52.160;-0.428;2023-03-14T03:18:32;6.20;99.90
20744;DHT22;56303;52.160;-0.428;2023-03-14T03:21:03;6.00;99.90
20744;DHT22;56303;52.160;-0.428;2023-03-14T03:23:31;6.20;99.90
20744;DHT22;56303;52.160;-0.428;2023-03-14T03:25:58;6.00;99.90
20744;DHT22;56303;52.160;-0.428;2023-03-14T03:28:25;6.10;99.90
20744;DHT22;56303;52.160;-0.428;2023-03-14T03:30:51;6.10;99.90
20744;DHT22;56303;52.160;-0.428;2023-03-14T03:33:18;6.30;99.90
20744;DHT22;56303;52.160;-0.428;2023-03-14T03:35:48;6.40;99.90
20744;DHT22;56303;52.160;-0.428;2023-03-14T03:38:16;6.20;99.90
20744;DHT22;56303;52.160;-0.428;2023-03-14T03:40:43;6.30;99.90
20744;DHT22;56303;52.160;-0.428;2023-03-14T03:43:10;6.20;99.90
20744;DHT22;56303;52.160;-0.428;2023-03-14T03:45:36;6.10;99.90
20744;DHT22;56303;52.160;-0.428;2023-03-14T03:48:03;6.10;99.90
20744;DHT22;56303;52.160;-0.428;2023-03-14T03:50:30;5.90;99.90
20744;DHT22;56303;52.160;-0.428;2023-03-14T03:52:57;6.20;99.90
20744;DHT22;56303;52.160;-0.428;2023-03-14T03:55:24;6.30;99.90
20744;DHT22;56303;52.160;-0.428;2023-03-14T03:57:52;6.00;99.90
20744;DHT22;56303;52.160;-0.428;2023-03-14T04:00:19;6.10;99.90
20744;DHT22;56303;52.160;-0.428;2023-03-14T04:02:45;6.00;99.90
20744;DHT22;56303;52.160;-0.428;2023-03-14T04:05:13;5.80;99.90
20744;DHT22;56303;52.160;-0.428;2023-03-14T04:07:40;5.90;99.90
20744;DHT22;56303;52.160;-0.428;2023-03-14T04:10:07;5.90;99.90
20744;DHT22;56303;52.160;-0.428;2023-03-14T04:12:34;5.80;99.90
20744;DHT22;56303;52.160;-0.428;2023-03-14T04:15:00;5.80;99.90
20744;DHT22;56303;52.160;-0.428;2023-03-14T04:17:27;5.80;99.90
20744;DHT22;56303;52.160;-0.428;2023-03-14T04:19:54;5.90;99.90
20744;DHT22;56303;52.160;-0.428;2023-03-14T04:22:21;5.80;99.90
20744;DHT22;56303;52.160;-0.428;2023-03-14T04:24:48;5.70;99.90
20744;DHT22;56303;52.160;-0.428;2023-03-14T04:27:15;5.90;99.90
20744;DHT22;56303;52.160;-0.428;2023-03-14T04:29:42;5.70;99.90
20744;DHT22;56303;52.160;-0.428;2023-03-14T04:32:09;5.80;99.90
20744;DHT22;56303;52.160;-0.428;2023-03-14T04:34:36;5.80;99.90
20744;DHT22;56303;52.160;-0.428;2023-03-14T04:37:03;5.80;99.90
20744;DHT22;56303;52.160;-0.428;2023-03-14T04:39:29;5.80;99.90
20744;DHT22;56303;52.160;-0.428;2023-03-14T04:41:56;5.50;99.90
20744;DHT22;56303;52.160;-0.428;2023-03-14T04:44:23;5.40;99.90
20744;DHT22;56303;52.160;-0.428;2023-03-14T04:46:50;5.60;99.90
20744;DHT22;56303;52.160;-0.428;2023-03-14T04:49:17;5.50;99.90
20744;DHT22;56303;52.160;-0.428;2023-03-14T04:51:44;5.40;99.90
20744;DHT22;56303;52.160;-0.428;2023-03-14T04:54:10;5.40;99.90
20744;DHT22;56303;52.160;-0.428;2023-03-14T04:56:37;5.30;99.90
20744;DHT22;56303;52.160;-0.428;2023-03-14T04:59:04;5.40;99.90
20744;DHT22;56303;52.160;-0.428;2023-03-14T05:01:31;5.30;99.90
20744;DHT22;56303;52.160;-0.428;2023-03-14T05:03:58;5.50;99.90
20744;DHT22;56303;52.160;-0.428;2023-03-14T05:06:25;5.40;99.90
20744;DHT22;56303;52.160;-0.428;2023-03-14T05:08:51;5.30;99.90
20744;DHT22;56303;52.160;-0.428;2023-03-14T05:11:18;5.30;99.90
20744;DHT22;56303;52.160;-0.428;2023-03-14T05:13:45;5.40;99.90
20744;DHT22;56303;52.160;-0.428;2023-03-14T05:16:12;5.60;99.90
20744;DHT22;56303;52.160;-0.428;2023-03-14T05:18:39;5.20;99.90
20744;DHT22;56303;52.160;-0.428;2023-03-14T05:21:06;5.10;99.90
20744;DHT22;56303;52.160;-0.428;2023-03-14T05:23:33;5.10;99.90
20744;DHT22;56303;52.160;-0.428;2023-03-14T05:25:59;5.20;99.90
20744;DHT22;56303;52.160;-0.428;2023-03-14T05:28:26;5.40;99.90
20744;DHT22;56303;52.160;-0.428;2023-03-14T05:30:53;5.20;99.90
20744;DHT22;56303;52.160;-0.428;2023-03-14T05:33:20;5.00;99.90
20744;DHT22;56303;52.160;-0.428;2023-03-14T05:35:47;5.00;99.90
20744;DHT22;56303;52.160;-0.428;2023-03-14T05:38:13;4.80;99.90
20744;DHT22;56303;52.160;-0.428;2023-03-14T05:40:40;5.10;99.90
20744;DHT22;56303;52.160;-0.428;2023-03-14T05:43:07;5.10;99.90
20744;DHT22;56303;52.160;-0.428;2023-03-14T05:45:34;4.90;99.90
20744;DHT22;56303;52.160;-0.428;2023-03-14T05:48:02;5.00;99.90
20744;DHT22;56303;52.160;-0.428;2023-03-14T05:50:29;4.80;99.90
20744;DHT22;56303;52.160;-0.428;2023-03-14T05:52:56;4.70;99.90
20744;DHT22;56303;52.160;-0.428;2023-03-14T05:55:23;4.70;99.90
20744;DHT22;56303;52.160;-0.428;2023-03-14T05:57:49;4.80;99.90
20744;DHT22;56303;52.160;-0.428;2023-03-14T06:00:17;4.80;99.90
20744;DHT22;56303;52.160;-0.428;2023-03-14T06:02:43;4.90;99.90
20744;DHT22;56303;52.160;-0.428;2023-03-14T06:05:10;4.90;99.90
20744;DHT22;56303;52.160;-0.428;2023-03-14T06:07:37;4.80;99.90
20744;DHT22;56303;52.160;-0.428;2023-03-14T06:10:05;4.90;99.90
20744;DHT22;56303;52.160;-0.428;2023-03-14T06:12:32;4.70;99.90
20744;DHT22;56303;52.160;-0.428;2023-03-14T06:14:59;4.80;99.90
20744;DHT22;56303;52.160;-0.428;2023-03-14T06:17:25;5.10;99.90
20744;DHT22;56303;52.160;-0.428;2023-03-14T06:19:52;5.20;99.90
20744;DHT22;56303;52.160;-0.428;2023-03-14T06:22:19;5.40;99.90
20744;DHT22;56303;52.160;-0.428;2023-03-14T06:24:46;5.30;99.90
20744;DHT22;56303;52.160;-0.428;2023-03-14T06:27:13;5.40;99.90
20744;DHT22;56303;52.160;-0.428;2023-03-14T06:29:39;5.70;99.90
20744;DHT22;56303;52.160;-0.428;2023-03-14T06:32:06;5.70;99.90
20744;DHT22;56303;52.160;-0.428;2023-03-14T06:34:33;5.50;99.90
20744;DHT22;56303;52.160;-0.428;2023-03-14T06:37:00;5.30;99.90
20744;DHT22;56303;52.160;-0.428;2023-03-14T06:39:26;5.40;99.90
20744;DHT22;56303;52.160;-0.428;2023-03-14T06:41:53;5.20;99.90
20744;DHT22;56303;52.160;-0.428;2023-03-14T06:44:20;5.10;99.90
20744;DHT22;56303;52.160;-0.428;2023-03-14T06:46:47;5.00;99.90
20744;DHT22;56303;52.160;-0.428;2023-03-14T06:49:13;4.80;99.90
20744;DHT22;56303;52.160;-0.428;2023-03-14T06:51:40;4.80;99.90
20744;DHT22;56303;52.160;-0.428;2023-03-14T06:54:07;4.50;99.90
20744;DHT22;56303;52.160;-0.428;2023-03-14T06:56:34;4.40;99.90
20744;DHT22;56303;52.160;-0.428;2023-03-14T06:59:00;4.40;99.90
20744;DHT22;56303;52.160;-0.428;2023-03-14T07:01:29;4.50;99.90
20744;DHT22;56303;52.160;-0.428;2023-03-14T07:03:56;4.30;99.90
20744;DHT22;56303;52.160;-0.428;2023-03-14T07:06:24;4.00;99.90
20744;DHT22;56303;52.160;-0.428;2023-03-14T07:08:51;4.00;99.90
20744;DHT22;56303;52.160;-0.428;2023-03-14T07:11:18;4.10;99.90
20744;DHT22;56303;52.160;-0.428;2023-03-14T07:13:45;3.80;99.90
20744;DHT22;56303;52.160;-0.428;2023-03-14T07:16:12;3.80;99.90
20744;DHT22;56303;52.160;-0.428;2023-03-14T07:18:39;3.70;99.90
20744;DHT22;56303;52.160;-0.428;2023-03-14T07:21:07;3.90;99.90
20744;DHT22;56303;52.160;-0.428;2023-03-14T07:23:35;3.90;99.90
20744;DHT22;56303;52.160;-0.428;2023-03-14T07:26:02;4.10;99.90
20744;DHT22;56303;52.160;-0.428;2023-03-14T07:28:29;4.00;99.90
20744;DHT22;56303;52.160;-0.428;2023-03-14T07:30:56;4.00;99.90
20744;DHT22;56303;52.160;-0.428;2023-03-14T07:33:23;4.20;99.90
20744;DHT22;56303;52.160;-0.428;2023-03-14T07:35:50;4.20;99.90
20744;DHT22;56303;52.160;-0.428;2023-03-14T07:38:17;4.40;99.90
20744;DHT22;56303;52.160;-0.428;2023-03-14T07:40:48;4.40;99.90
20744;DHT22;56303;52.160;-0.428;2023-03-14T07:43:15;4.50;99.90
20744;DHT22;56303;52.160;-0.428;2023-03-14T07:45:45;4.70;99.90
20744;DHT22;56303;52.160;-0.428;2023-03-14T07:48:16;4.60;99.90
20744;DHT22;56303;52.160;-0.428;2023-03-14T07:50:43;4.70;99.90
20744;DHT22;56303;52.160;-0.428;2023-03-14T07:53:10;4.80;99.90
20744;DHT22;56303;52.160;-0.428;2023-03-14T07:55:37;4.80;99.90
20744;DHT22;56303;52.160;-0.428;2023-03-14T07:58:05;4.50;99.90
20744;DHT22;56303;52.160;-0.428;2023-03-14T08:00:33;4.70;99.90
20744;DHT22;56303;52.160;-0.428;2023-03-14T08:02:59;4.70;99.90
20744;DHT22;56303;52.160;-0.428;2023-03-14T08:05:27;4.70;99.90
20744;DHT22;56303;52.160;-0.428;2023-03-14T08:07:53;4.70;99.90
20744;DHT22;56303;52.160;-0.428;2023-03-14T08:10:20;4.60;99.90
20744;DHT22;56303;52.160;-0.428;2023-03-14T08:12:49;4.60;99.90
20744;DHT22;56303;52.160;-0.428;2023-03-14T08:15:16;4.60;99.90
20744;DHT22;56303;52.160;-0.428;2023-03-14T08:17:43;5.10;99.90
20744;DHT22;56303;52.160;-0.428;2023-03-14T08:20:11;5.20;99.90
20744;DHT22;56303;52.160;-0.428;2023-03-14T08:22:38;5.30;99.90
20744;DHT22;56303;52.160;-0.428;2023-03-14T08:25:06;5.00;99.90
20744;DHT22;56303;52.160;-0.428;2023-03-14T08:27:32;5.10;99.90
20744;DHT22;56303;52.160;-0.428;2023-03-14T08:29:59;4.80;99.90
20744;DHT22;56303;52.160;-0.428;2023-03-14T08:32:26;4.90;99.90
20744;DHT22;56303;52.160;-0.428;2023-03-14T08:34:53;4.80;99.90
20744;DHT22;56303;52.160;-0.428;2023-03-14T08:37:20;4.90;99.90
20744;DHT22;56303;52.160;-0.428;2023-03-14T08:39:52;4.80;99.90
20744;DHT22;56303;52.160;-0.428;2023-03-14T08:42:19;4.70;99.90
20744;DHT22;56303;52.160;-0.428;2023-03-14T08:44:46;5.10;99.90
20744;DHT22;56303;52.160;-0.428;2023-03-14T08:47:13;5.40;99.90
20744;DHT22;56303;52.160;-0.428;2023-03-14T08:49:40;5.20;99.90
20744;DHT22;56303;52.160;-0.428;2023-03-14T08:52:07;5.30;99.90
20744;DHT22;56303;52.160;-0.428;2023-03-14T08:54:34;5.80;99.90
20744;DHT22;56303;52.160;-0.428;2023-03-14T08:57:00;5.80;99.90
20744;DHT22;56303;52.160;-0.428;2023-03-14T08:59:27;5.70;99.90
20744;DHT22;56303;52.160;-0.428;2023-03-14T09:01:54;5.70;99.90
20744;DHT22;56303;52.160;-0.428;2023-03-14T09:04:21;5.80;99.90
20744;DHT22;56303;52.160;-0.428;2023-03-14T09:06:48;6.10;99.90
20744;DHT22;56303;52.160;-0.428;2023-03-14T09:09:15;5.90;99.90
20744;DHT22;56303;52.160;-0.428;2023-03-14T09:11:41;5.90;99.90
20744;DHT22;56303;52.160;-0.428;2023-03-14T09:14:08;5.80;99.90
20744;DHT22;56303;52.160;-0.428;2023-03-14T09:16:35;6.00;99.90
20744;DHT22;56303;52.160;-0.428;2023-03-14T09:19:02;6.30;99.90
20744;DHT22;56303;52.160;-0.428;2023-03-14T09:21:29;6.10;99.90
20744;DHT22;56303;52.160;-0.428;2023-03-14T09:23:55;6.20;99.90
20744;DHT22;56303;52.160;-0.428;2023-03-14T09:26:22;5.80;99.90
20744;DHT22;56303;52.160;-0.428;2023-03-14T09:28:49;6.10;99.90
20744;DHT22;56303;52.160;-0.428;2023-03-14T09:31:17;6.10;99.90
20744;DHT22;56303;52.160;-0.428;2023-03-14T09:33:44;6.30;99.90
20744;DHT22;56303;52.160;-0.428;2023-03-14T09:36:11;6.50;99.90
20744;DHT22;56303;52.160;-0.428;2023-03-14T09:38:38;6.20;99.90
20744;DHT22;56303;52.160;-0.428;2023-03-14T09:41:18;6.40;99.90
20744;DHT22;56303;52.160;-0.428;2023-03-14T09:43:59;6.40;99.90
20744;DHT22;56303;52.160;-0.428;2023-03-14T09:46:32;6.60;99.90
20744;DHT22;56303;52.160;-0.428;2023-03-14T09:49:01;6.40;99.90
20744;DHT22;56303;52.160;-0.428;2023-03-14T09:51:29;6.50;99.90
20744;DHT22;56303;52.160;-0.428;2023-03-14T09:54:01;6.00;99.90
20744;DHT22;56303;52.160;-0.428;2023-03-14T09:56:42;6.10;99.90
20744;DHT22;56303;52.160;-0.428;2023-03-14T09:59:12;6.90;99.90
20744;DHT22;56303;52.160;-0.428;2023-03-14T10:01:40;6.20;99.90
20744;DHT22;56303;52.160;-0.428;2023-03-14T10:04:14;6.10;99.90
20744;DHT22;56303;52.160;-0.428;2023-03-14T10:06:42;6.70;99.90
20744;DHT22;56303;52.160;-0.428;2023-03-14T10:09:22;6.90;99.90
20744;DHT22;56303;52.160;-0.428;2023-03-14T10:11:55;6.70;99.90
20744;DHT22;56303;52.160;-0.428;2023-03-14T10:14:31;6.90;99.90
20744;DHT22;56303;52.160;-0.428;2023-03-14T10:17:09;6.70;99.90
20744;DHT22;56303;52.160;-0.428;2023-03-14T10:19:37;6.80;99.90
20744;DHT22;56303;52.160;-0.428;2023-03-14T10:22:17;7.10;99.90
20744;DHT22;56303;52.160;-0.428;2023-03-14T10:24:52;7.70;99.90
20744;DHT22;56303;52.160;-0.428;2023-03-14T10:27:30;8.10;99.90
20744;DHT22;56303;52.160;-0.428;2023-03-14T10:30:00;8.20;99.90
20744;DHT22;56303;52.160;-0.428;2023-03-14T10:32:38;8.10;99.90
20744;DHT22;56303;52.160;-0.428;2023-03-14T10:38:10;8.40;99.90
20744;DHT22;56303;52.160;-0.428;2023-03-14T10:40:40;8.40;99.90
20744;DHT22;56303;52.160;-0.428;2023-03-14T10:43:13;8.20;99.90
20744;DHT22;56303;52.160;-0.428;2023-03-14T10:45:43;7.40;99.90
20744;DHT22;56303;52.160;-0.428;2023-03-14T10:48:18;7.60;99.90
20744;DHT22;56303;52.160;-0.428;2023-03-14T10:53:42;8.20;99.90
20744;DHT22;56303;52.160;-0.428;2023-03-14T10:56:15;8.40;99.90
20744;DHT22;56303;52.160;-0.428;2023-03-14T10:58:47;8.20;99.90
20744;DHT22;56303;52.160;-0.428;2023-03-14T11:07:03;9.30;99.90
20744;DHT22;56303;52.160;-0.428;2023-03-14T11:09:41;8.70;99.90
20744;DHT22;56303;52.160;-0.428;2023-03-14T11:15:09;9.10;99.90
20744;DHT22;56303;52.160;-0.428;2023-03-14T11:17:46;8.70;99.90
20744;DHT22;56303;52.160;-0.428;2023-03-14T11:23:37;8.80;99.90
20744;DHT22;56303;52.160;-0.428;2023-03-14T11:26:31;8.70;99.90
20744;DHT22;56303;52.160;-0.428;2023-03-14T11:31:45;8.60;99.90
20744;DHT22;56303;52.160;-0.428;2023-03-14T11:34:26;8.10;99.90
20744;DHT22;56303;52.160;-0.428;2023-03-14T11:37:13;8.10;99.90
20744;DHT22;56303;52.160;-0.428;2023-03-14T11:39:46;8.20;99.90
20744;DHT22;56303;52.160;-0.428;2023-03-14T11:42:16;8.50;99.90
20744;DHT22;56303;52.160;-0.428;2023-03-14T11:44:48;8.70;99.90
20744;DHT22;56303;52.160;-0.428;2023-03-14T11:49:53;9.00;99.90
20744;DHT22;56303;52.160;-0.428;2023-03-14T11:52:34;8.90;99.90
20744;DHT22;56303;52.160;-0.428;2023-03-14T11:55:28;8.70;99.90
20744;DHT22;56303;52.160;-0.428;2023-03-14T11:58:01;9.00;99.90
20744;DHT22;56303;52.160;-0.428;2023-03-14T12:00:30;8.40;99.90
20744;DHT22;56303;52.160;-0.428;2023-03-14T12:03:19;8.20;99.90
20744;DHT22;56303;52.160;-0.428;2023-03-14T12:13:55;8.30;99.90
20744;DHT22;56303;52.160;-0.428;2023-03-14T12:18:51;9.30;99.90
20744;DHT22;56303;52.160;-0.428;2023-03-14T12:21:19;9.50;99.90
20744;DHT22;56303;52.160;-0.428;2023-03-14T12:23:52;10.00;99.90
20744;DHT22;56303;52.160;-0.428;2023-03-14T12:26:23;10.00;99.90
20744;DHT22;56303;52.160;-0.428;2023-03-14T12:39:47;10.90;99.90
20744;DHT22;56303;52.160;-0.428;2023-03-14T12:47:51;10.40;99.90
20744;DHT22;56303;52.160;-0.428;2023-03-14T12:50:24;11.00;99.90
20744;DHT22;56303;52.160;-0.428;2023-03-14T12:53:05;10.50;99.90
20744;DHT22;56303;52.160;-0.428;2023-03-14T13:01:00;10.30;99.90
20744;DHT22;56303;52.160;-0.428;2023-03-14T13:03:52;10.70;99.90
20744;DHT22;56303;52.160;-0.428;2023-03-14T13:06:44;11.00;99.90
20744;DHT22;56303;52.160;-0.428;2023-03-14T13:11:56;12.30;99.90
20744;DHT22;56303;52.160;-0.428;2023-03-14T13:14:23;11.80;99.90
20744;DHT22;56303;52.160;-0.428;2023-03-14T13:16:50;12.30;99.90
20744;DHT22;56303;52.160;-0.428;2023-03-14T13:19:18;12.00;99.90
20744;DHT22;56303;52.160;-0.428;2023-03-14T13:21:47;10.60;99.90
20744;DHT22;56303;52.160;-0.428;2023-03-14T13:24:26;10.30;99.90
20744;DHT22;56303;52.160;-0.428;2023-03-14T13:26:56;10.50;99.90
20744;DHT22;56303;52.160;-0.428;2023-03-14T13:29:26;11.60;99.90
20744;DHT22;56303;52.160;-0.428;2023-03-14T13:31:55;11.70;99.90
20744;DHT22;56303;52.160;-0.428;2023-03-14T13:34:29;11.30;99.90
20744;DHT22;56303;52.160;-0.428;2023-03-14T13:36:56;10.30;99.90
20744;DHT22;56303;52.160;-0.428;2023-03-14T13:39:25;10.50;99.90
20744;DHT22;56303;52.160;-0.428;2023-03-14T13:41:54;10.30;99.90
20744;DHT22;56303;52.160;-0.428;2023-03-14T13:44:36;11.60;99.90
20744;DHT22;56303;52.160;-0.428;2023-03-14T13:47:05;11.90;99.90
20744;DHT22;56303;52.160;-0.428;2023-03-14T13:49:33;12.10;99.80
20744;DHT22;56303;52.160;-0.428;2023-03-14T13:52:04;12.70;99.50
20744;DHT22;56303;52.160;-0.428;2023-03-14T13:54:47;12.00;98.80
20744;DHT22;56303;52.160;-0.428;2023-03-14T13:57:14;11.50;99.30
20744;DHT22;56303;52.160;-0.428;2023-03-14T13:59:41;11.90;99.30
20744;DHT22;56303;52.160;-0.428;2023-03-14T14:02:14;12.80;99.90
20744;DHT22;56303;52.160;-0.428;2023-03-14T14:04:44;13.30;98.50
20744;DHT22;56303;52.160;-0.428;2023-03-14T14:07:16;12.40;98.50
20744;DHT22;56303;52.160;-0.428;2023-03-14T14:09:49;12.60;98.60
20744;DHT22;56303;52.160;-0.428;2023-03-14T14:12:30;12.90;98.80
20744;DHT22;56303;52.160;-0.428;2023-03-14T14:15:04;12.70;99.20
20744;DHT22;56303;52.160;-0.428;2023-03-14T14:17:42;12.00;98.50
20744;DHT22;56303;52.160;-0.428;2023-03-14T14:23:03;11.80;98.70
20744;DHT22;56303;52.160;-0.428;2023-03-14T14:25:30;10.70;99.90
20744;DHT22;56303;52.160;-0.428;2023-03-14T14:27:57;11.30;99.90
20744;DHT22;56303;52.160;-0.428;2023-03-14T14:30:29;12.40;99.90
20744;DHT22;56303;52.160;-0.428;2023-03-14T14:33:11;12.80;98.90
20744;DHT22;56303;52.160;-0.428;2023-03-14T14:35:40;13.20;99.00
20744;DHT22;56303;52.160;-0.428;2023-03-14T14:38:12;13.80;97.90
20744;DHT22;56303;52.160;-0.428;2023-03-14T14:40:48;12.30;97.60
20744;DHT22;56303;52.160;-0.428;2023-03-14T14:43:19;11.50;98.70
20744;DHT22;56303;52.160;-0.428;2023-03-14T14:45:52;12.20;98.80
20744;DHT22;56303;52.160;-0.428;2023-03-14T14:48:22;12.70;99.80
20744;DHT22;56303;52.160;-0.428;2023-03-14T14:51:09;13.40;98.30
20744;DHT22;56303;52.160;-0.428;2023-03-14T14:53:42;13.40;98.40
20744;DHT22;56303;52.160;-0.428;2023-03-14T14:56:18;13.30;97.70
20744;DHT22;56303;52.160;-0.428;2023-03-14T14:58:49;13.10;98.10
20744;DHT22;56303;52.160;-0.428;2023-03-14T15:01:21;12.50;98.40
20744;DHT22;56303;52.160;-0.428;2023-03-14T15:03:51;11.90;99.20
20744;DHT22;56303;52.160;-0.428;2023-03-14T15:06:19;12.00;98.40
20744;DHT22;56303;52.160;-0.428;2023-03-14T15:08:47;12.30;98.00
20744;DHT22;56303;52.160;-0.428;2023-03-14T15:11:23;12.60;97.40
20744;DHT22;56303;52.160;-0.428;2023-03-14T15:13:51;12.20;98.10
20744;DHT22;56303;52.160;-0.428;2023-03-14T15:16:27;11.70;98.20
20744;DHT22;56303;52.160;-0.428;2023-03-14T15:18:56;12.20;97.20
20744;DHT22;56303;52.160;-0.428;2023-03-14T15:21:24;13.40;97.90
20744;DHT22;56303;52.160;-0.428;2023-03-14T15:23:51;14.10;97.20
20744;DHT22;56303;52.160;-0.428;2023-03-14T15:26:25;12.50;96.50
20744;DHT22;56303;52.160;-0.428;2023-03-14T15:28:52;11.50;97.60
20744;DHT22;56303;52.160;-0.428;2023-03-14T15:31:20;11.20;99.60
20744;DHT22;56303;52.160;-0.428;2023-03-14T15:33:48;11.10;98.50
20744;DHT22;56303;52.160;-0.428;2023-03-14T15:36:30;11.40;99.90
20744;DHT22;56303;52.160;-0.428;2023-03-14T15:38:57;10.50;99.90
20744;DHT22;56303;52.160;-0.428;2023-03-14T15:41:26;10.10;99.90
20744;DHT22;56303;52.160;-0.428;2023-03-14T15:43:53;9.70;99.90
20744;DHT22;56303;52.160;-0.428;2023-03-14T15:46:21;9.40;99.90
20744;DHT22;56303;52.160;-0.428;2023-03-14T15:48:50;9.60;99.90
20744;DHT22;56303;52.160;-0.428;2023-03-14T15:51:17;9.80;99.90
20744;DHT22;56303;52.160;-0.428;2023-03-14T15:53:44;9.90;99.90
20744;DHT22;56303;52.160;-0.428;2023-03-14T15:56:14;9.70;99.90
20744;DHT22;56303;52.160;-0.428;2023-03-14T15:58:42;9.80;99.90
20744;DHT22;56303;52.160;-0.428;2023-03-14T16:01:14;10.00;99.90
20744;DHT22;56303;52.160;-0.428;2023-03-14T16:03:45;9.90;99.90
20744;DHT22;56303;52.160;-0.428;2023-03-14T16:06:13;9.70;99.90
20744;DHT22;56303;52.160;-0.428;2023-03-14T16:08:40;10.00;99.90
20744;DHT22;56303;52.160;-0.428;2023-03-14T16:11:10;9.90;99.90
20744;DHT22;56303;52.160;-0.428;2023-03-14T16:13:37;11.00;99.90
20744;DHT22;56303;52.160;-0.428;2023-03-14T16:16:05;11.50;99.90
20744;DHT22;56303;52.160;-0.428;2023-03-14T16:18:35;11.50;99.90
20744;DHT22;56303;52.160;-0.428;2023-03-14T16:21:05;11.00;99.90
20744;DHT22;56303;52.160;-0.428;2023-03-14T16:23:33;10.40;99.90
20744;DHT22;56303;52.160;-0.428;2023-03-14T16:26:03;10.20;99.90
20744;DHT22;56303;52.160;-0.428;2023-03-14T16:28:31;10.50;99.90
20744;DHT22;56303;52.160;-0.428;2023-03-14T16:31:05;11.00;99.90
20744;DHT22;56303;52.160;-0.428;2023-03-14T16:33:33;11.00;99.90
20744;DHT22;56303;52.160;-0.428;2023-03-14T16:36:03;11.80;99.90
20744;DHT22;56303;52.160;-0.428;2023-03-14T16:38:39;13.30;99.30
20744;DHT22;56303;52.160;-0.428;2023-03-14T16:41:13;13.70;98.30
20744;DHT22;56303;52.160;-0.428;2023-03-14T16:43:41;12.50;99.90
20744;DHT22;56303;52.160;-0.428;2023-03-14T16:46:14;11.60;99.90
20744;DHT22;56303;52.160;-0.428;2023-03-14T16:48:44;10.90;99.90